createdAt,value
2019-04-20T21:51:55.395Z,12.10
2019-04-20T21:52:51.969Z,11.50
2019-04-20T21:54:40.703Z,12.30
2019-04-20T21:55:41.865Z,12.30
2019-04-20T21:57:42.130Z,12.10
2019-04-20T21:58:43.556Z,11.90
2019-04-20T22:00:39.143Z,12.30
2019-04-20T22:01:34.502Z,12.70
2019-04-20T22:02:32.541Z,11.30
2019-04-20T22:03:29.993Z,12.20
2019-04-20T22:04:29.659Z,11.80
2019-04-20T22:05:30.356Z,11.70
2019-04-20T22:06:29.640Z,12.20
2019-04-20T22:07:30.481Z,11.30
2019-04-20T22:08:30.471Z,11.80
2019-04-20T22:09:34.524Z,12.10
2019-04-20T22:10:32.852Z,12.00
2019-04-20T22:11:29.675Z,11.90
2019-04-20T22:12:39.503Z,11.80
2019-04-20T22:13:36.426Z,12.00
2019-04-20T22:14:32.269Z,12.30
2019-04-20T22:15:32.993Z,12.80
2019-04-20T22:16:36.542Z,12.20
2019-04-20T22:17:33.177Z,12.30
2019-04-20T22:18:31.869Z,12.00
2019-04-20T22:19:38.723Z,11.80
2019-04-20T22:20:38.610Z,11.30
2019-04-20T22:22:47.113Z,12.20
2019-04-20T22:23:43.262Z,12.10
2019-04-20T22:24:44.969Z,11.90
2019-04-20T22:25:47.466Z,11.90
2019-04-20T22:26:39.434Z,11.30
2019-04-20T22:27:34.346Z,11.30
2019-04-20T22:28:29.814Z,10.70
2019-04-20T22:29:30.258Z,12.20
2019-04-20T22:30:30.300Z,12.10
2019-04-20T22:31:30.018Z,11.80
2019-04-20T22:32:30.073Z,11.60
2019-04-20T22:33:36.227Z,11.50
2019-04-20T22:34:30.199Z,11.80
2019-04-20T22:35:31.238Z,11.80
2019-04-20T22:36:35.564Z,10.80
2019-04-20T22:37:30.500Z,11.40
2019-04-20T22:38:30.820Z,10.70
2019-04-20T22:39:36.814Z,10.90
2019-04-20T22:40:33.058Z,11.20
2019-04-20T22:41:30.158Z,10.70
2019-04-20T22:42:31.356Z,10.70
2019-04-20T22:43:33.904Z,11.30
2019-04-20T22:44:32.387Z,10.60
2019-04-20T22:45:29.622Z,10.60
2019-04-20T22:46:33.683Z,10.20
2019-04-20T22:47:32.571Z,9.70
2019-04-20T22:48:29.534Z,10.70
2019-04-20T22:49:47.299Z,10.00
2019-04-20T22:50:44.858Z,9.40
2019-04-20T22:51:44.011Z,9.00
2019-04-20T22:53:44.206Z,9.50
2019-04-20T22:54:45.920Z,9.70
2019-04-20T22:56:00.351Z,10.10
2019-04-20T22:56:43.489Z,8.70
2019-04-20T22:57:43.318Z,9.00
2019-04-20T22:58:44.789Z,9.00
2019-04-20T22:59:38.407Z,9.00
2019-04-20T23:00:37.313Z,8.90
2019-04-20T23:01:37.543Z,9.70
2019-04-20T23:02:30.227Z,9.00
2019-04-20T23:03:30.568Z,8.80
2019-04-20T23:04:30.759Z,9.50
2019-04-20T23:05:29.371Z,8.90
2019-04-20T23:06:35.434Z,8.50
2019-04-20T23:07:30.659Z,9.40
2019-04-20T23:08:30.698Z,9.10
2019-04-20T23:09:32.850Z,9.00
2019-04-20T23:10:34.753Z,9.30
2019-04-20T23:11:33.274Z,8.70
2019-04-20T23:12:30.391Z,8.80
2019-04-20T23:13:35.040Z,8.70
2019-04-20T23:14:29.334Z,9.10
2019-04-20T23:15:30.154Z,9.20
2019-04-20T23:16:37.836Z,9.30
2019-04-20T23:17:35.971Z,8.70
2019-04-20T23:18:29.322Z,9.00
2019-04-20T23:19:38.245Z,8.90
2019-04-20T23:20:32.640Z,9.00
2019-04-20T23:21:29.964Z,8.90
2019-04-20T23:22:36.909Z,8.70
2019-04-20T23:23:30.982Z,9.30
2019-04-20T23:24:29.293Z,8.60
2019-04-20T23:25:29.348Z,8.80
2019-04-20T23:26:33.568Z,8.90
2019-04-20T23:27:31.739Z,9.70
2019-04-20T23:28:29.283Z,9.50
2019-04-20T23:29:34.000Z,11.00
2019-04-20T23:30:33.965Z,9.40
2019-04-20T23:31:30.749Z,9.60
2019-04-20T23:32:30.262Z,10.10
2019-04-20T23:33:29.854Z,10.30
2019-04-20T23:34:32.374Z,9.90
2019-04-20T23:35:30.343Z,9.90
2019-04-20T23:36:36.497Z,10.50
2019-04-20T23:37:32.963Z,9.80
2019-04-20T23:38:30.548Z,9.60
2019-04-20T23:39:35.398Z,10.20
2019-04-20T23:40:29.869Z,10.00
2019-04-20T23:41:29.228Z,10.00
2019-04-20T23:42:33.644Z,9.60
2019-04-20T23:43:33.368Z,9.20
2019-04-20T23:44:29.371Z,9.70
2019-04-20T23:45:38.569Z,9.70
2019-04-20T23:46:31.386Z,8.80
2019-04-20T23:47:30.083Z,9.40
2019-04-20T23:48:34.852Z,9.00
2019-04-20T23:49:37.575Z,8.70
2019-04-20T23:50:47.669Z,9.20
2019-04-20T23:51:49.347Z,8.70
2019-04-20T23:52:49.088Z,9.30
2019-04-20T23:53:43.810Z,8.70
2019-04-20T23:54:33.138Z,9.30
2019-04-20T23:55:29.757Z,9.20
2019-04-20T23:56:29.964Z,9.80
2019-04-20T23:57:29.394Z,8.80
2019-04-20T23:58:30.902Z,8.90
2019-04-20T23:59:34.321Z,9.10
